Time;durP1;ratioP1;P1;durP2;ratioP2;P2;SDS_P1;SDS_P2;PMS_P1;PMS_P2;Temp;Humidity;BMP_temperature;BMP_pressure;BME280_temperature;BME280_humidity;BME280_pressure;Samples;Min_cycle;Max_cycle;Signal;HPM_P1;HPM_P2
2021/04/17 00:04:07;;;;;;;32.93;19.15;;;;;;;3.10;92.03;99247.99;4381837;80;21627;-84
2021/04/17 00:10:10;;;;;;;33.85;18.32;;;;;;;3.11;92.09;99248.22;4408357;80;21198;-84
2021/04/17 00:16:11;;;;;;;34.88;19.92;;;;;;;3.12;92.10;99241.13;4404767;80;21209;-84
2021/04/17 00:22:13;;;;;;;34.35;18.65;;;;;;;3.12;92.03;99241.69;4400382;80;21194;-83
2021/04/17 00:28:15;;;;;;;34.98;19.37;;;;;;;3.13;92.03;99229.77;4394331;80;21195;-84
2021/04/17 00:34:16;;;;;;;39.10;21.65;;;;;;;3.19;92.05;99232.54;4397322;80;21292;-84
2021/04/17 00:40:18;;;;;;;35.65;19.15;;;;;;;3.14;91.97;99233.50;4398102;80;21717;-84
2021/04/17 00:46:20;;;;;;;30.52;19.23;;;;;;;3.11;91.96;99221.97;4402394;80;21198;-88
2021/04/17 00:52:22;;;;;;;36.28;18.23;;;;;;;3.06;92.15;99229.44;4386317;80;21201;-90
2021/04/17 00:58:23;;;;;;;33.73;17.80;;;;;;;3.03;92.15;99224.13;4394766;81;21145;-90
2021/04/17 01:04:35;;;;;;;34.92;20.68;;;;;;;3.06;92.19;99233.50;4419223;80;21160;-90
2021/04/17 01:10:47;;;;;;;36.50;21.52;;;;;;;3.09;92.22;99234.20;4362153;81;21143;-89
2021/04/17 01:16:49;;;;;;;36.58;22.32;;;;;;;3.04;92.16;99237.88;4393062;80;21201;-89
2021/04/17 01:23:14;;;;;;;33.92;19.87;;;;;;;3.05;92.20;99234.05;4395970;81;21427;-88
2021/04/17 01:29:16;;;;;;;32.60;19.48;;;;;;;3.05;92.22;99235.98;4397144;80;21606;-90
2021/04/17 01:35:20;;;;;;;33.18;17.73;;;;;;;3.05;92.22;99237.33;4394419;80;21646;-89
2021/04/17 01:41:31;;;;;;;26.75;15.83;;;;;;;3.06;92.08;99232.95;4405421;81;21145;-88
2021/04/17 01:47:36;;;;;;;29.00;14.95;;;;;;;3.02;92.13;99242.02;4402102;80;21148;-91
2021/04/17 01:53:40;;;;;;;21.60;13.45;;;;;;;2.96;92.15;99241.38;4440062;80;21185;-90
2021/04/17 01:59:41;;;;;;;26.82;15.25;;;;;;;2.97;92.12;99241.63;4424075;80;21149;-90
2021/04/17 02:05:50;;;;;;;23.27;14.60;;;;;;;2.94;92.20;99237.41;4395263;81;21141;-90
2021/04/17 02:11:51;;;;;;;20.48;13.85;;;;;;;2.93;92.22;99243.91;4402685;81;21138;-90
2021/04/17 02:18:17;;;;;;;23.50;13.75;;;;;;;2.94;92.05;99238.19;4411059;80;21423;-88
2021/04/17 02:24:18;;;;;;;33.42;16.55;;;;;;;2.96;92.04;99240.02;4387108;81;21635;-90
2021/04/17 02:30:20;;;;;;;29.82;18.35;;;;;;;2.93;92.23;99242.02;4386004;80;21913;-88
2021/04/17 02:36:22;;;;;;;24.27;14.55;;;;;;;2.90;92.26;99235.89;4376572;81;21198;-89
2021/04/17 02:42:24;;;;;;;28.60;16.65;;;;;;;2.87;92.60;99242.48;4416751;80;21134;-88
2021/04/17 02:48:25;;;;;;;24.92;14.58;;;;;;;2.83;92.36;99238.84;4395932;80;21162;-89
2021/04/17 02:54:27;;;;;;;20.77;13.50;;;;;;;2.85;92.31;99236.63;4403178;79;21174;-89
2021/04/17 03:00:28;;;;;;;20.30;13.28;;;;;;;2.82;92.34;99223.72;4409096;80;21141;-88
2021/04/17 03:06:30;;;;;;;22.95;14.83;;;;;;;2.83;92.37;99228.83;4407665;80;21161;-88
2021/04/17 03:12:32;;;;;;;24.30;14.43;;;;;;;2.83;92.45;99230.19;4395093;80;21162;-89
2021/04/17 03:18:34;;;;;;;22.10;14.03;;;;;;;2.88;92.35;99231.35;4324171;79;21406;-88
2021/04/17 03:24:36;;;;;;;23.18;13.88;;;;;;;2.95;92.43;99234.94;4093543;85;21382;-89
2021/04/17 03:30:48;;;;;;;;;;;;;;;;;;;;;
2021/04/17 03:36:51;;;;;;;28.30;16.05;;;;;;;2.95;92.38;99238.99;4446662;79;22994;-90
2021/04/17 03:42:52;;;;;;;26.87;16.45;;;;;;;2.86;92.33;99236.31;4387256;80;21597;-88
2021/04/17 03:48:54;;;;;;;27.85;15.98;;;;;;;2.91;92.49;99242.11;4389152;80;21122;-87
2021/04/17 03:54:56;;;;;;;27.70;17.65;;;;;;;3.01;92.51;99245.83;4392138;80;21169;-91
2021/04/17 04:00:57;;;;;;;30.80;17.42;;;;;;;3.02;92.40;99243.38;4389160;80;21576;-88
2021/04/17 04:06:58;;;;;;;29.15;16.57;;;;;;;2.97;92.43;99248.94;4382415;80;21280;-89
2021/04/17 04:13:03;;;;;;;27.10;17.00;;;;;;;2.98;92.49;99243.22;4396026;80;21149;-91
2021/04/17 04:19:05;;;;;;;31.05;18.77;;;;;;;3.08;92.69;99248.86;4388057;79;21563;-89
2021/04/17 04:25:09;;;;;;;26.12;17.95;;;;;;;3.09;92.54;99251.24;4371353;79;21153;-89
2021/04/17 04:31:11;;;;;;;24.40;15.32;;;;;;;3.12;92.54;99259.27;4394098;80;21179;-89
2021/04/17 04:37:12;;;;;;;29.72;17.05;;;;;;;3.16;92.41;99267.00;4396301;80;21189;-90
2021/04/17 04:43:14;;;;;;;26.65;16.90;;;;;;;3.18;92.60;99271.51;4382305;80;21698;-90
2021/04/17 04:49:15;;;;;;;30.50;18.45;;;;;;;3.20;92.56;99276.05;4396116;80;21105;-89
2021/04/17 04:55:17;;;;;;;28.42;16.67;;;;;;;3.13;92.53;99270.34;4387661;80;21086;-89
2021/04/17 05:01:19;;;;;;;26.70;16.93;;;;;;;3.23;92.64;99269.22;4389265;80;21703;-89
2021/04/17 05:07:20;;;;;;;30.90;17.82;;;;;;;3.29;92.61;99267.36;4381079;80;21187;-89
2021/04/17 05:13:22;;;;;;;26.80;16.15;;;;;;;3.26;92.62;99260.46;4351599;80;21149;-88
2021/04/17 05:19:25;;;;;;;26.23;16.62;;;;;;;3.34;92.47;99266.39;4384127;80;21162;-89
2021/04/17 05:25:38;;;;;;;26.77;16.75;;;;;;;3.26;92.43;99269.36;4390280;80;21163;-91
2021/04/17 05:31:40;;;;;;;31.33;18.02;;;;;;;3.30;92.55;99272.22;4397247;80;21165;-90
2021/04/17 05:37:41;;;;;;;34.58;18.60;;;;;;;3.40;92.43;99266.48;4407363;80;21154;-90
2021/04/17 05:43:43;;;;;;;25.52;16.45;;;;;;;3.46;92.58;99271.39;4389334;80;21135;-92
2021/04/17 05:49:44;;;;;;;23.38;16.82;;;;;;;3.51;92.38;99275.86;4403183;80;21181;-91
2021/04/17 05:55:45;;;;;;;24.60;16.45;;;;;;;3.52;92.28;99276.09;4407550;80;21157;-90
2021/04/17 06:01:47;;;;;;;23.65;16.10;;;;;;;3.48;92.43;99281.92;4407660;80;21142;-91
2021/04/17 06:07:48;;;;;;;23.42;14.60;;;;;;;3.46;92.32;99280.86;4401592;80;21590;-89
2021/04/17 06:13:51;;;;;;;19.67;13.00;;;;;;;3.48;92.39;99273.80;4401253;80;21438;-90
2021/04/17 06:19:52;;;;;;;16.90;12.23;;;;;;;3.56;92.37;99272.41;4395367;80;21133;-88
2021/04/17 06:25:54;;;;;;;21.87;13.85;;;;;;;3.62;92.40;99267.64;4396920;79;21206;-90
2021/04/17 06:31:55;;;;;;;21.77;12.80;;;;;;;3.66;92.47;99272.08;4401756;80;21157;-89
2021/04/17 06:37:57;;;;;;;22.45;14.00;;;;;;;3.80;92.47;99269.97;4401664;80;21579;-88
2021/04/17 06:44:01;;;;;;;23.75;14.90;;;;;;;3.82;92.09;99268.29;4379042;80;21157;-90
2021/04/17 06:50:04;;;;;;;18.57;12.85;;;;;;;3.86;92.14;99266.52;4382597;80;21480;-90
2021/04/17 06:56:06;;;;;;;20.95;14.15;;;;;;;3.93;92.25;99273.02;4392586;80;21155;-86
2021/04/17 07:02:15;;;;;;;25.08;14.43;;;;;;;4.04;92.09;99272.11;4381503;80;21801;-87
2021/04/17 07:08:17;;;;;;;21.82;14.05;;;;;;;4.01;91.81;99278.19;4377843;80;21584;-87
2021/04/17 07:14:19;;;;;;;21.65;14.23;;;;;;;4.06;91.94;99276.63;4410124;80;21186;-88
2021/04/17 07:20:22;;;;;;;23.42;15.80;;;;;;;4.09;92.03;99278.13;4387435;80;21458;-89
2021/04/17 07:26:28;;;;;;;24.92;15.72;;;;;;;4.19;91.96;99275.07;4377333;80;21131;-88
2021/04/17 07:32:30;;;;;;;25.43;15.45;;;;;;;4.26;91.77;99277.28;4394292;80;21194;-87
2021/04/17 07:38:37;;;;;;;27.45;17.50;;;;;;;4.31;91.69;99281.94;4378971;80;21173;-89
2021/04/17 07:44:47;;;;;;;28.12;18.20;;;;;;;4.28;91.63;99283.95;4384935;80;21169;-89
2021/04/17 07:51:14;;;;;;;28.55;18.42;;;;;;;4.33;91.67;99289.19;4394647;80;21178;-87
2021/04/17 07:57:15;;;;;;;22.80;14.27;;;;;;;4.40;91.66;99285.39;4381435;80;21574;-88
2021/04/17 08:03:18;;;;;;;29.90;19.25;;;;;;;4.49;91.64;99294.84;4389203;80;21114;-88
2021/04/17 08:09:22;;;;;;;28.83;17.82;;;;;;;4.54;91.53;99291.95;4392414;80;21142;-88
2021/04/17 08:15:24;;;;;;;29.10;19.27;;;;;;;4.50;91.30;99298.58;4397864;79;21139;-87
2021/04/17 08:21:25;;;;;;;31.00;19.23;;;;;;;4.52;91.13;99300.41;4399801;80;21134;-88
2021/04/17 08:27:31;;;;;;;30.15;19.85;;;;;;;4.55;91.23;99298.40;4383198;80;21586;-89
2021/04/17 08:33:32;;;;;;;34.33;20.80;;;;;;;4.53;90.84;99303.34;4390901;80;21181;-88
2021/04/17 08:39:39;;;;;;;31.10;19.70;;;;;;;4.57;91.25;99301.55;4377254;80;21155;-91
2021/04/17 08:46:07;;;;;;;33.88;22.77;;;;;;;4.64;91.25;99301.05;4378122;81;21560;-90
2021/04/17 08:52:20;;;;;;;35.00;22.85;;;;;;;4.75;91.26;99300.89;4392408;80;21485;-89
2021/04/17 08:58:26;;;;;;;40.80;23.05;;;;;;;4.78;91.13;99303.75;4403772;80;21165;-90
2021/04/17 09:04:27;;;;;;;25.73;16.37;;;;;;;4.78;90.89;99311.89;4371968;81;21147;-91
2021/04/17 09:10:32;;;;;;;33.50;21.23;;;;;;;4.75;90.98;99308.48;4373814;81;21644;-90
2021/04/17 09:22:51;;;;;;;29.48;19.65;;;;;;;4.78;91.09;99311.09;4514677;79;22677;-91
2021/04/17 09:28:52;;;;;;;36.00;20.68;;;;;;;4.80;90.83;99306.94;4440302;78;53055;-90
2021/04/17 09:34:54;;;;;;;35.65;19.87;;;;;;;4.81;90.71;99311.78;4195751;84;21671;-92
2021/04/17 09:40:56;;;;;;;32.70;21.07;;;;;;;4.76;90.56;99312.00;4244065;84;21306;-89
2021/04/17 09:47:09;;;;;;;33.65;20.52;;;;;;;4.73;90.51;99307.20;4240854;83;21140;-91
2021/04/17 09:53:27;;;;;;;36.10;21.45;;;;;;;4.79;90.68;99303.20;4232182;83;21580;-90
2021/04/17 09:59:26;;;;;;;30.95;20.23;;;;;;;4.79;90.77;99303.97;4204127;84;21201;-90
2021/04/17 10:05:34;;;;;;;34.73;21.95;;;;;;;4.87;90.60;99303.67;4216961;83;21193;-90
2021/04/17 10:11:40;;;;;;;39.50;23.07;;;;;;;4.95;90.58;99304.18;4211186;83;21759;-90
2021/04/17 10:17:42;;;;;;;33.17;20.13;;;;;;;4.97;90.59;99298.42;4209742;82;21637;-91
2021/04/17 10:23:46;;;;;;;38.50;21.68;;;;;;;5.06;90.42;99305.38;4126333;85;21473;-91
2021/04/17 10:29:52;;;;;;;35.40;21.85;;;;;;;5.15;90.27;99296.62;4126182;85;21175;-91
2021/04/17 10:35:56;;;;;;;38.83;22.03;;;;;;;5.19;89.92;99294.83;4161467;85;21560;-91
2021/04/17 10:42:10;;;;;;;34.23;22.60;;;;;;;5.19;89.87;99296.73;4135594;85;21180;-90
2021/04/17 10:48:23;;;;;;;39.48;22.55;;;;;;;5.23;89.99;99287.59;4131497;85;21626;-90
2021/04/17 10:54:25;;;;;;;38.88;22.48;;;;;;;5.30;90.01;99290.58;4143417;85;21206;-89
2021/04/17 11:00:35;;;;;;;39.75;24.75;;;;;;;5.34;89.86;99290.13;4149542;84;21447;-89
2021/04/17 11:06:39;;;;;;;38.28;23.00;;;;;;;5.37;89.84;99285.98;4155631;84;21184;-91
2021/04/17 11:12:40;;;;;;;38.67;22.37;;;;;;;5.30;89.69;99289.23;4118769;85;21327;-91
2021/04/17 11:18:44;;;;;;;40.08;24.23;;;;;;;5.32;89.45;99292.41;4155027;85;21170;-89
2021/04/17 11:25:06;;;;;;;35.60;22.42;;;;;;;5.38;89.55;99284.84;4201794;84;21157;-90
2021/04/17 11:31:10;;;;;;;32.17;19.87;;;;;;;5.48;89.36;99289.87;4208580;82;21188;-90
2021/04/17 11:37:13;;;;;;;32.55;22.65;;;;;;;5.59;89.19;99291.03;4234206;83;21205;-90
2021/04/17 11:43:15;;;;;;;27.90;19.00;;;;;;;5.72;89.49;99294.80;4215568;83;21156;-90
2021/04/17 11:49:16;;;;;;;31.52;19.45;;;;;;;5.95;89.42;99298.73;4207869;83;21190;-89
2021/04/17 11:55:18;;;;;;;28.98;17.65;;;;;;;6.04;88.77;99294.56;4223053;83;21125;-91
2021/04/17 12:01:20;;;;;;;33.90;22.42;;;;;;;5.98;88.50;99293.98;4209692;83;21185;-90
2021/04/17 12:07:22;;;;;;;28.67;19.55;;;;;;;6.00;89.04;99294.44;4202609;84;21157;-91
2021/04/17 12:13:23;;;;;;;27.25;17.67;;;;;;;6.17;88.99;99299.67;4214562;84;21214;-90
2021/04/17 12:19:25;;;;;;;28.62;19.20;;;;;;;6.34;88.76;99307.61;4220688;83;21761;-91
2021/04/17 12:25:26;;;;;;;27.60;19.32;;;;;;;6.42;88.44;99296.98;4232693;84;21161;-91
2021/04/17 12:31:28;;;;;;;29.87;18.90;;;;;;;6.30;88.09;99296.39;4211111;84;21881;-90
2021/04/17 12:37:30;;;;;;;28.73;19.55;;;;;;;6.27;87.95;99297.88;4205956;84;21586;-90
2021/04/17 12:43:31;;;;;;;39.50;23.25;;;;;;;6.19;87.73;99297.41;4210115;84;21137;-90
2021/04/17 12:49:41;;;;;;;48.25;27.52;;;;;;;6.07;87.85;99298.77;4216435;83;21129;-90
2021/04/17 12:56:35;;;;;;;40.17;23.83;;;;;;;5.95;87.96;99302.03;4237700;84;21160;-90
2021/04/17 13:02:36;;;;;;;40.17;23.55;;;;;;;6.02;88.15;99303.06;4223268;83;21642;-92
2021/04/17 13:08:38;;;;;;;38.35;24.95;;;;;;;5.99;88.08;99301.02;4227027;83;21164;-91
2021/04/17 13:15:10;;;;;;;;;;;;;;;;;;;;;
2021/04/17 13:31:38;;;;;;;36.13;22.50;;;;;;;5.97;87.75;99293.76;4430889;78;22960;-90
2021/04/17 13:37:40;;;;;;;34.35;20.82;;;;;;;5.97;88.09;99296.48;4343012;81;21529;-89
2021/04/17 13:43:41;;;;;;;35.48;22.45;;;;;;;5.99;87.86;99300.21;4355457;81;21127;-92
2021/04/17 13:49:43;;;;;;;39.25;23.98;;;;;;;6.03;87.80;99305.19;4360916;81;21547;-90
2021/04/17 13:55:45;;;;;;;42.03;26.60;;;;;;;6.01;87.95;99300.68;4355276;81;21157;-92
2021/04/17 14:01:46;;;;;;;40.67;25.02;;;;;;;5.97;87.90;99305.19;4344501;80;21185;-91
2021/04/17 14:07:48;;;;;;;41.23;25.10;;;;;;;5.86;87.75;99298.03;4341296;81;21298;-92
2021/04/17 14:13:49;;;;;;;49.90;27.93;;;;;;;5.90;88.01;99296.22;4360319;81;21152;-92
2021/04/17 14:19:51;;;;;;;30.52;19.48;;;;;;;5.94;87.79;99306.66;4357008;81;21472;-93
2021/04/17 14:25:52;;;;;;;31.90;19.95;;;;;;;5.87;87.52;99305.05;4345992;81;21510;-93
2021/04/17 14:31:54;;;;;;;45.78;27.35;;;;;;;5.75;87.60;99309.07;4363683;81;21153;-91
2021/04/17 14:37:56;;;;;;;59.90;31.90;;;;;;;5.78;87.93;99308.98;4358274;81;21180;-92
2021/04/17 14:43:58;;;;;;;59.83;33.33;;;;;;;5.76;87.82;99312.59;4344145;81;21173;-94
2021/04/17 14:50:00;;;;;;;57.23;33.78;;;;;;;5.68;87.72;99312.11;4355359;81;21180;-92
2021/04/17 14:56:02;;;;;;;55.40;33.18;;;;;;;5.71;88.14;99314.95;4362545;81;21888;-91
2021/04/17 15:02:04;;;;;;;57.65;33.42;;;;;;;5.76;88.07;99319.38;4345748;81;21331;-89
2021/04/17 15:08:06;;;;;;;55.48;32.83;;;;;;;5.84;88.14;99318.53;4358006;81;21141;-91
2021/04/17 15:14:07;;;;;;;48.85;27.58;;;;;;;5.79;87.89;99320.06;4349513;81;21149;-90
2021/04/17 15:20:22;;;;;;;35.60;23.52;;;;;;;5.72;87.92;99316.53;4339633;80;21137;-91
2021/04/17 15:26:29;;;;;;;41.18;27.30;;;;;;;5.73;87.77;99320.05;4351775;81;21172;-89
2021/04/17 15:32:42;;;;;;;35.25;24.43;;;;;;;5.78;88.16;99314.41;4593336;76;22162;-90
2021/04/17 15:38:43;;;;;;;38.35;25.35;;;;;;;5.74;88.15;99318.36;4488121;78;21316;-89
2021/04/17 15:44:44;;;;;;;46.05;28.27;;;;;;;5.68;87.98;99317.54;4481391;78;21558;-91
2021/04/17 15:50:47;;;;;;;46.00;28.80;;;;;;;5.65;87.98;99304.63;4502445;78;21535;-90
2021/04/17 15:56:58;;;;;;;48.30;29.92;;;;;;;5.69;87.91;99310.41;4494578;78;21145;-89
2021/04/17 16:15:41;;;;;;;47.67;31.15;;;;;;;5.57;88.09;99296.80;4490604;79;21144;-91
2021/04/17 16:21:44;;;;;;;45.67;29.27;;;;;;;5.52;88.30;99298.92;4502318;79;21149;-90
2021/04/17 16:27:46;;;;;;;52.93;33.98;;;;;;;5.48;88.30;99292.58;4505996;78;21167;-89
2021/04/17 16:33:48;;;;;;;57.98;36.70;;;;;;;5.42;88.15;99283.06;4487650;79;21586;-89
2021/04/17 16:39:49;;;;;;;60.92;36.42;;;;;;;5.40;88.29;99286.11;4498125;78;21097;-92
2021/04/17 16:45:52;;;;;;;64.07;37.88;;;;;;;5.38;88.35;99295.14;4477012;79;22198;-89
2021/04/17 16:51:53;;;;;;;70.32;39.53;;;;;;;5.30;88.36;99296.02;4489487;79;21557;-89
2021/04/17 16:57:55;;;;;;;61.58;38.48;;;;;;;5.28;88.50;99305.63;4483823;79;21120;-90
2021/04/17 17:03:58;;;;;;;68.07;39.88;;;;;;;5.34;88.64;99307.00;4478534;79;21151;-89
2021/04/17 17:09:59;;;;;;;74.92;43.13;;;;;;;5.37;88.67;99306.34;4490142;78;21462;-89
2021/04/17 17:16:03;;;;;;;69.42;41.23;;;;;;;5.33;88.74;99307.56;4491422;79;21120;-89
2021/04/17 17:22:04;;;;;;;71.85;41.28;;;;;;;5.33;88.74;99310.27;4491103;78;21877;-90
2021/04/17 17:28:06;;;;;;;75.42;44.77;;;;;;;5.36;88.60;99311.52;4488174;79;21180;-89
2021/04/17 17:34:08;;;;;;;84.32;49.13;;;;;;;5.35;88.67;99307.22;4472621;79;21133;-90
2021/04/17 17:40:10;;;;;;;80.50;48.78;;;;;;;5.31;88.71;99315.81;4475436;78;21165;-89
2021/04/17 17:46:12;;;;;;;77.03;45.58;;;;;;;5.26;88.71;99316.78;4492652;78;21145;-91
2021/04/17 17:52:13;;;;;;;85.55;48.73;;;;;;;5.24;88.86;99313.63;4485681;78;21151;-90
2021/04/17 17:58:15;;;;;;;81.45;46.75;;;;;;;5.22;88.92;99305.02;4494557;78;21144;-90
2021/04/17 18:04:17;;;;;;;69.53;38.20;;;;;;;5.18;88.97;99316.32;4492422;79;21149;-91
2021/04/17 18:10:53;;;;;;;;;;;;;;;;;;;;;
2021/04/17 18:17:09;;;;;;;71.90;38.92;;;;;;;5.10;89.04;99329.39;4436034;79;21282;-92
2021/04/17 18:23:10;;;;;;;70.95;38.88;;;;;;;5.12;89.20;99331.19;4493521;78;21157;-90
2021/04/17 18:29:12;;;;;;;65.25;36.65;;;;;;;5.10;89.35;99347.03;4497514;78;21112;-91
2021/04/17 18:35:13;;;;;;;64.77;35.68;;;;;;;5.07;89.21;99344.98;4497387;79;21132;-89
2021/04/17 18:41:15;;;;;;;69.82;40.85;;;;;;;5.08;89.29;99355.24;4505457;78;21153;-89
2021/04/17 18:47:17;;;;;;;77.58;42.27;;;;;;;5.06;89.41;99356.16;4489601;79;21807;-90
2021/04/17 18:53:19;;;;;;;73.50;40.98;;;;;;;5.00;89.56;99357.45;4495007;79;21129;-91
2021/04/17 18:59:20;;;;;;;70.67;40.85;;;;;;;4.97;89.56;99361.63;4499139;78;21127;-91
2021/04/17 19:05:23;;;;;;;78.57;42.17;;;;;;;5.02;89.62;99368.23;4493971;78;21200;-89
2021/04/17 19:11:25;;;;;;;83.40;42.00;;;;;;;5.02;89.61;99362.80;4501535;79;21676;-89
2021/04/17 19:17:26;;;;;;;75.90;41.15;;;;;;;5.02;89.70;99361.99;4498780;79;21415;-90
2021/04/17 19:23:29;;;;;;;72.40;39.40;;;;;;;5.00;89.75;99352.83;4496799;79;21148;-89
2021/04/17 19:29:30;;;;;;;80.30;43.15;;;;;;;5.06;89.77;99358.29;4494268;79;21164;-90
2021/04/17 19:35:33;;;;;;;82.25;42.25;;;;;;;5.10;89.78;99357.08;4486458;78;21157;-89
2021/04/17 19:41:35;;;;;;;79.47;42.93;;;;;;;5.04;89.71;99355.13;4483090;79;21132;-88
2021/04/17 19:47:37;;;;;;;79.27;43.08;;;;;;;5.01;89.77;99358.51;4485336;79;21173;-88
2021/04/17 19:53:39;;;;;;;86.57;44.95;;;;;;;5.05;89.75;99354.00;4478181;79;21898;-88
2021/04/17 19:59:40;;;;;;;77.80;43.05;;;;;;;5.07;89.88;99358.55;4483855;78;21152;-90
2021/04/17 20:05:42;;;;;;;79.22;44.42;;;;;;;5.04;89.86;99356.48;4496672;78;21141;-88
2021/04/17 20:11:43;;;;;;;84.40;44.25;;;;;;;4.98;89.90;99356.42;4492991;78;21131;-89
2021/04/17 20:17:45;;;;;;;90.85;47.23;;;;;;;5.01;89.99;99359.06;4482274;79;21619;-88
2021/04/17 20:23:47;;;;;;;86.63;46.75;;;;;;;5.01;89.95;99356.34;4487717;79;21114;-90
2021/04/17 20:29:48;;;;;;;87.88;47.20;;;;;;;4.99;90.10;99356.67;4485514;77;21124;-90
2021/04/17 20:35:50;;;;;;;82.95;44.08;;;;;;;4.98;90.13;99358.36;4462313;79;21152;-89
2021/04/17 20:41:52;;;;;;;86.10;45.45;;;;;;;5.01;90.10;99363.94;4441036;80;21149;-89
2021/04/17 20:47:53;;;;;;;84.80;45.28;;;;;;;4.99;90.16;99355.88;4447680;79;21178;-89
2021/04/17 20:53:55;;;;;;;94.87;49.70;;;;;;;4.96;90.26;99356.53;4443793;80;21158;-89
2021/04/17 20:59:57;;;;;;;95.60;50.28;;;;;;;4.97;90.28;99354.05;4451723;79;21157;-88
2021/04/17 21:05:58;;;;;;;105.80;54.55;;;;;;;4.98;90.28;99354.30;4436971;80;21114;-90
2021/04/17 21:12:00;;;;;;;93.90;48.08;;;;;;;5.00;90.35;99354.19;4438819;79;21134;-89
2021/04/17 21:18:01;;;;;;;80.67;42.08;;;;;;;5.00;90.48;99338.45;4441989;79;21140;-89
2021/04/17 21:24:05;;;;;;;73.55;41.28;;;;;;;4.98;90.31;99346.92;4431538;79;21134;-88
2021/04/17 21:30:08;;;;;;;77.12;41.20;;;;;;;4.97;90.33;99337.21;4425099;79;21975;-88
2021/04/17 21:36:13;;;;;;;79.20;40.28;;;;;;;4.98;90.56;99338.79;4418787;80;21110;-88
2021/04/17 21:42:13;;;;;;;75.10;38.10;;;;;;;4.91;90.54;99348.03;4422692;79;21114;-87
2021/04/17 21:48:15;;;;;;;77.58;39.78;;;;;;;4.94;90.56;99353.34;4402381;79;21169;-88
2021/04/17 21:54:16;;;;;;;79.22;40.92;;;;;;;5.00;90.56;99350.67;4422043;79;21126;-88
2021/04/17 22:00:32;;;;;;;85.30;42.78;;;;;;;4.98;90.61;99355.06;4421422;79;21122;-89
2021/04/17 22:13:51;;;;;;;83.70;42.93;;;;;;;4.93;90.55;99349.05;4435226;79;21121;-90
2021/04/17 22:19:53;;;;;;;88.07;44.75;;;;;;;4.93;90.64;99343.63;4420210;79;21949;-89
2021/04/17 22:25:55;;;;;;;89.80;44.95;;;;;;;4.88;90.57;99348.69;4421644;80;21149;-88
2021/04/17 22:31:56;;;;;;;81.67;42.40;;;;;;;4.86;90.83;99348.21;4421817;80;21144;-88
2021/04/17 22:37:58;;;;;;;88.25;44.00;;;;;;;4.86;90.69;99348.21;4432877;80;21645;-88
2021/04/17 22:43:59;;;;;;;88.78;43.33;;;;;;;4.92;90.81;99355.03;4429913;80;21148;-88
2021/04/17 22:50:01;;;;;;;87.70;43.17;;;;;;;4.95;90.80;99352.23;4429111;80;21176;-89
2021/04/17 22:56:04;;;;;;;81.70;41.73;;;;;;;4.95;90.84;99344.87;4432242;80;21149;-88
2021/04/17 23:02:06;;;;;;;84.30;41.45;;;;;;;4.97;90.65;99345.91;4428828;80;21637;-90
2021/04/17 23:08:08;;;;;;;85.67;43.60;;;;;;;5.05;91.00;99342.34;4431139;80;21129;-88
2021/04/17 23:14:10;;;;;;;90.75;41.70;;;;;;;5.07;90.67;99334.12;4431821;80;21566;-88
2021/04/17 23:20:15;;;;;;;90.85;42.83;;;;;;;5.04;90.55;99329.36;4429319;80;21077;-88
2021/04/17 23:27:06;;;;;;;87.78;42.33;;;;;;;5.00;90.60;99329.77;4432186;80;21136;-88
2021/04/17 23:33:08;;;;;;;92.17;45.15;;;;;;;4.99;90.51;99324.13;4431857;79;21569;-89
2021/04/17 23:39:10;;;;;;;94.62;48.15;;;;;;;5.02;90.46;99315.87;4432239;79;21582;-89
2021/04/17 23:45:13;;;;;;;99.35;44.93;;;;;;;5.01;90.57;99313.73;4426966;79;21414;-87
2021/04/17 23:51:14;;;;;;;86.12;45.20;;;;;;;5.02;90.50;99307.73;4432741;80;21172;-89
2021/04/17 23:57:16;;;;;;;89.15;45.92;;;;;;;5.08;90.57;99303.69;4432849;80;21121;-89
